createdAt,value
2022-09-13T00:00:21.815Z,15.07
2022-09-13T00:01:08.608Z,15.05
2022-09-13T00:01:55.707Z,15.05
2022-09-13T00:02:42.207Z,15.05
2022-09-13T00:03:28.886Z,15.03
2022-09-13T00:04:15.438Z,15.02
2022-09-13T00:05:01.842Z,15.03
2022-09-13T00:05:49.301Z,15.01
2022-09-13T00:06:36.188Z,15.00
2022-09-13T00:07:22.588Z,14.95
2022-09-13T00:08:09.505Z,15.01
2022-09-13T00:08:55.932Z,14.98
2022-09-13T00:09:42.502Z,15.02
2022-09-13T00:10:29.252Z,15.00
2022-09-13T00:11:20.238Z,14.98
2022-09-13T00:12:06.778Z,14.95
2022-09-13T00:12:54.245Z,14.93
2022-09-13T00:13:40.749Z,14.92
2022-09-13T00:14:27.231Z,14.92
2022-09-13T00:15:13.704Z,14.91
2022-09-13T00:16:03.711Z,14.91
2022-09-13T00:16:50.270Z,14.91
2022-09-13T00:17:37.291Z,14.87
2022-09-13T00:18:25.048Z,14.87
2022-09-13T00:19:11.483Z,14.88
2022-09-13T00:19:57.899Z,14.88
2022-09-13T00:20:45.571Z,14.87
2022-09-13T00:21:32.244Z,14.87
2022-09-13T00:22:18.695Z,14.86
2022-09-13T00:23:06.588Z,14.84
2022-09-13T00:23:54.676Z,14.89
2022-09-13T00:24:41.361Z,14.89
2022-09-13T00:25:27.811Z,14.90
2022-09-13T00:26:19.794Z,14.91
2022-09-13T00:27:06.676Z,14.91
2022-09-13T00:27:53.082Z,14.90
2022-09-13T00:28:40.301Z,14.90
2022-09-13T00:29:27.485Z,14.89
2022-09-13T00:30:14.069Z,14.86
2022-09-13T00:31:02.720Z,14.88
2022-09-13T00:31:49.426Z,14.87
2022-09-13T00:32:36.262Z,14.86
2022-09-13T00:33:22.708Z,14.86
2022-09-13T00:34:09.253Z,14.81
2022-09-13T00:34:55.737Z,14.83
2022-09-13T00:35:42.204Z,14.81
2022-09-13T00:36:29.069Z,14.82
2022-09-13T00:37:15.866Z,14.79
2022-09-13T00:38:02.652Z,14.80
2022-09-13T00:38:49.167Z,14.80
2022-09-13T00:39:35.965Z,14.79
2022-09-13T00:40:22.478Z,14.78
2022-09-13T00:41:13.592Z,14.78
2022-09-13T00:42:00.284Z,14.77
2022-09-13T00:42:46.730Z,14.76
2022-09-13T00:43:54.672Z,14.75
2022-09-13T00:44:55.891Z,14.74
2022-09-13T00:45:42.691Z,14.74
2022-09-13T00:46:44.518Z,14.75
2022-09-13T00:47:45.382Z,14.75
2022-09-13T00:48:35.587Z,14.75
2022-09-13T00:49:43.116Z,14.75
2022-09-13T00:50:49.704Z,14.74
2022-09-13T00:51:39.678Z,14.76
2022-09-13T00:52:31.110Z,14.76
2022-09-13T00:53:25.127Z,14.77
2022-09-13T00:54:15.234Z,14.75
2022-09-13T00:55:30.318Z,14.82
2022-09-13T00:56:29.974Z,14.85
2022-09-13T00:57:20.950Z,14.85
2022-09-13T00:58:13.607Z,14.89
2022-09-13T00:59:12.437Z,14.92
2022-09-13T01:00:13.911Z,14.92
2022-09-13T01:01:04.785Z,14.95
2022-09-13T01:01:55.862Z,14.96
2022-09-13T01:03:04.120Z,14.97
2022-09-13T01:03:51.049Z,15.00
2022-09-13T01:04:40.185Z,14.99
2022-09-13T01:05:33.194Z,14.96
2022-09-13T01:06:29.336Z,14.95
2022-09-13T01:07:18.610Z,14.97
2022-09-13T01:08:14.917Z,14.93
2022-09-13T01:09:04.945Z,14.91
2022-09-13T01:09:54.503Z,14.91
2022-09-13T01:10:42.274Z,14.92
2022-09-13T01:11:50.201Z,14.90
2022-09-13T01:12:48.354Z,14.88
2022-09-13T01:13:36.604Z,14.87
2022-09-13T01:14:24.083Z,14.86
2022-09-13T01:15:11.301Z,14.84
2022-09-13T01:15:59.644Z,14.85
2022-09-13T01:16:47.991Z,14.85
2022-09-13T01:17:36.572Z,14.82
2022-09-13T01:18:25.979Z,14.84
2022-09-13T01:19:12.570Z,14.85
2022-09-13T01:20:01.469Z,14.84
2022-09-13T01:21:12.545Z,14.84
2022-09-13T01:22:13.669Z,14.86
2022-09-13T01:23:36.365Z,14.87
2022-09-13T01:24:28.887Z,14.83
2022-09-13T01:25:35.111Z,14.83
2022-09-13T01:26:39.923Z,14.82
2022-09-13T01:27:40.821Z,14.82
2022-09-13T01:28:48.992Z,14.83
2022-09-13T01:29:41.228Z,14.83
2022-09-13T01:30:45.394Z,14.83
2022-09-13T01:32:07.469Z,14.85
2022-09-13T01:33:12.372Z,14.89
2022-09-13T01:34:19.582Z,14.88
2022-09-13T01:35:26.503Z,14.88
2022-09-13T01:36:42.401Z,14.86
2022-09-13T01:37:38.302Z,14.86
2022-09-13T01:39:01.740Z,14.84
2022-09-13T01:40:06.261Z,14.84
2022-09-13T01:41:15.553Z,14.84
2022-09-13T01:42:16.471Z,14.83
2022-09-13T01:43:15.823Z,14.75
2022-09-13T01:44:30.191Z,14.77
2022-09-13T01:45:39.238Z,14.76
2022-09-13T01:46:37.934Z,14.79
2022-09-13T01:47:49.697Z,14.78
2022-09-13T01:49:01.494Z,14.79
2022-09-13T01:49:57.309Z,14.81
2022-09-13T01:50:59.928Z,14.76
2022-09-13T01:52:05.599Z,14.75
2022-09-13T01:53:18.644Z,14.74
2022-09-13T01:54:36.329Z,14.72
2022-09-13T01:55:28.837Z,14.72
2022-09-13T01:56:43.994Z,14.71
2022-09-13T01:57:41.651Z,14.71
2022-09-13T01:58:41.413Z,14.69
2022-09-13T01:59:33.811Z,14.69
2022-09-13T02:00:20.608Z,14.70
2022-09-13T02:01:18.602Z,14.70
2022-09-13T02:02:10.512Z,14.74
2022-09-13T02:03:07.141Z,14.73
2022-09-13T02:04:13.971Z,14.72
2022-09-13T02:05:09.796Z,14.75
2022-09-13T02:06:20.230Z,14.76
2022-09-13T02:07:33.996Z,14.77
2022-09-13T02:08:38.314Z,14.73
2022-09-13T02:09:30.527Z,14.75
2022-09-13T02:10:30.411Z,14.76
2022-09-13T02:11:22.283Z,14.77
2022-09-13T02:12:21.768Z,14.77
2022-09-13T02:13:15.599Z,14.77
2022-09-13T02:14:24.065Z,14.79
2022-09-13T02:15:18.229Z,14.75
2022-09-13T02:16:20.427Z,14.79
2022-09-13T02:17:19.287Z,14.79
2022-09-13T02:18:15.188Z,14.77
2022-09-13T02:19:20.114Z,14.80
2022-09-13T02:20:21.121Z,14.81
2022-09-13T02:21:17.862Z,14.80
2022-09-13T02:22:08.964Z,14.84
2022-09-13T02:23:02.019Z,14.81
2022-09-13T02:23:55.470Z,14.83
2022-09-13T02:24:56.771Z,14.82
2022-09-13T02:25:47.868Z,14.86
2022-09-13T02:26:40.427Z,14.87
2022-09-13T02:27:33.319Z,14.87
2022-09-13T02:28:32.855Z,14.83
2022-09-13T02:29:24.799Z,14.87
2022-09-13T02:30:14.311Z,14.88
2022-09-13T02:31:05.667Z,14.90
2022-09-13T02:32:04.581Z,14.95
2022-09-13T02:32:56.338Z,14.95
2022-09-13T02:33:52.031Z,14.93
2022-09-13T02:34:46.036Z,14.97
2022-09-13T02:35:35.257Z,14.98
2022-09-13T02:36:28.145Z,15.00
2022-09-13T02:37:14.881Z,15.01
2022-09-13T02:38:13.092Z,15.03
2022-09-13T02:39:03.639Z,15.04
2022-09-13T02:39:58.532Z,15.06
2022-09-13T02:41:11.102Z,15.06
2022-09-13T02:42:12.812Z,15.09
2022-09-13T02:43:10.407Z,15.08
2022-09-13T02:44:08.897Z,15.14
2022-09-13T02:44:59.853Z,15.16
2022-09-13T02:46:11.676Z,15.17
2022-09-13T02:47:35.407Z,15.17
2022-09-13T02:48:37.478Z,15.18
2022-09-13T02:49:45.941Z,15.18
2022-09-13T02:50:49.442Z,15.19
2022-09-13T02:51:44.130Z,15.21
2022-09-13T02:53:01.428Z,15.24
2022-09-13T02:54:14.130Z,15.25
2022-09-13T02:55:25.770Z,15.28
2022-09-13T02:56:30.556Z,15.31
2022-09-13T02:57:48.362Z,15.33
2022-09-13T02:59:05.967Z,15.35
2022-09-13T02:59:52.452Z,15.36
2022-09-13T03:00:40.044Z,15.37
2022-09-13T03:01:27.004Z,15.39
2022-09-13T03:02:19.348Z,15.39
2022-09-13T03:03:11.307Z,15.36
2022-09-13T03:03:57.980Z,15.39
2022-09-13T03:04:44.620Z,15.40
2022-09-13T03:05:31.234Z,15.41
2022-09-13T03:06:24.614Z,15.44
2022-09-13T03:07:13.509Z,15.44
2022-09-13T03:08:01.639Z,15.39
2022-09-13T03:08:48.258Z,15.45
2022-09-13T03:09:35.141Z,15.45
2022-09-13T03:10:23.275Z,15.45
2022-09-13T03:11:22.153Z,15.46
2022-09-13T03:12:29.781Z,15.47
2022-09-13T03:13:51.558Z,15.46
2022-09-13T03:14:47.440Z,15.47
2022-09-13T03:16:05.854Z,15.47
2022-09-13T03:17:19.032Z,15.46
2022-09-13T03:18:28.341Z,15.46
2022-09-13T03:19:46.089Z,15.46
2022-09-13T03:21:07.473Z,15.44
2022-09-13T03:22:16.448Z,15.50
2022-09-13T03:23:39.506Z,15.49
2022-09-13T03:24:50.191Z,15.41
2022-09-13T03:25:56.288Z,15.45
2022-09-13T03:26:56.831Z,15.49
2022-09-13T03:28:02.491Z,15.47
2022-09-13T03:29:23.388Z,15.39
2022-09-13T03:30:15.815Z,15.38
2022-09-13T03:31:32.484Z,15.37
2022-09-13T03:32:38.076Z,15.46
2022-09-13T03:33:49.019Z,15.46
2022-09-13T03:34:44.329Z,15.45
2022-09-13T03:35:50.858Z,15.44
2022-09-13T03:36:48.572Z,15.42
2022-09-13T03:37:46.426Z,15.41
2022-09-13T03:38:41.105Z,15.33
2022-09-13T03:39:49.394Z,15.39
2022-09-13T03:41:18.512Z,15.39
2022-09-13T03:42:17.047Z,15.39
2022-09-13T03:43:21.833Z,15.42
2022-09-13T03:44:14.025Z,15.42
2022-09-13T03:45:05.054Z,15.39
2022-09-13T03:45:58.978Z,15.40
2022-09-13T03:46:51.668Z,15.42
2022-09-13T03:47:44.252Z,15.42
2022-09-13T03:48:36.106Z,15.43
2022-09-13T03:49:26.888Z,15.48
2022-09-13T03:50:21.767Z,15.52
2022-09-13T03:51:10.565Z,15.53
2022-09-13T03:51:59.289Z,15.45
2022-09-13T03:52:51.205Z,15.46
2022-09-13T03:53:45.476Z,15.43
2022-09-13T03:54:36.670Z,15.43
2022-09-13T03:55:23.767Z,15.38
2022-09-13T03:56:16.204Z,15.42
2022-09-13T03:57:14.261Z,15.42
2022-09-13T03:58:01.140Z,15.41
2022-09-13T03:58:48.679Z,15.47
2022-09-13T03:59:38.527Z,15.42
2022-09-13T04:00:25.173Z,15.39
2022-09-13T04:01:11.779Z,15.40
2022-09-13T04:01:58.313Z,15.40
2022-09-13T04:02:45.103Z,15.41
2022-09-13T04:03:31.758Z,15.41
2022-09-13T04:04:18.290Z,15.41
2022-09-13T04:05:05.096Z,15.39
2022-09-13T04:05:51.480Z,15.41
2022-09-13T04:06:38.007Z,15.44
2022-09-13T04:07:25.290Z,15.41
2022-09-13T04:08:11.807Z,15.44
2022-09-13T04:08:59.628Z,15.44
2022-09-13T04:09:46.660Z,15.45
2022-09-13T04:10:34.511Z,15.46
2022-09-13T04:11:21.474Z,15.44
2022-09-13T04:12:10.058Z,15.45
2022-09-13T04:12:56.931Z,15.44
2022-09-13T04:13:43.488Z,15.42
2022-09-13T04:14:30.444Z,15.45
2022-09-13T04:15:16.873Z,15.47
2022-09-13T04:16:05.973Z,15.49
2022-09-13T04:16:54.216Z,15.49
2022-09-13T04:17:40.606Z,15.50
2022-09-13T04:18:27.199Z,15.50
2022-09-13T04:19:14.050Z,15.48
2022-09-13T04:20:00.500Z,15.51
2022-09-13T04:20:55.587Z,15.52
2022-09-13T04:21:41.942Z,15.52
2022-09-13T04:22:29.438Z,15.52
2022-09-13T04:23:16.225Z,15.49
2022-09-13T04:24:03.080Z,15.49
2022-09-13T04:24:49.459Z,15.50
2022-09-13T04:25:40.431Z,15.50
2022-09-13T04:26:26.834Z,15.51
2022-09-13T04:27:13.457Z,15.52
2022-09-13T04:28:00.077Z,15.50
2022-09-13T04:28:46.462Z,15.53
2022-09-13T04:29:33.311Z,15.53
2022-09-13T04:30:19.715Z,15.55
2022-09-13T04:31:06.170Z,15.54
2022-09-13T04:31:55.543Z,15.55
2022-09-13T04:32:44.442Z,15.56
2022-09-13T04:33:31.411Z,15.56
2022-09-13T04:34:18.703Z,15.55
2022-09-13T04:35:06.329Z,15.54
2022-09-13T04:35:59.853Z,15.56
2022-09-13T04:36:47.143Z,15.53
2022-09-13T04:37:33.548Z,15.55
2022-09-13T04:38:19.936Z,15.50
2022-09-13T04:39:07.128Z,15.55
2022-09-13T04:39:53.582Z,15.54
2022-09-13T04:40:40.613Z,15.53
2022-09-13T04:41:27.073Z,15.54
2022-09-13T04:42:13.701Z,15.53
2022-09-13T04:43:00.922Z,15.52
2022-09-13T04:43:50.699Z,15.52
2022-09-13T04:44:37.151Z,15.52
2022-09-13T04:45:23.993Z,15.52
2022-09-13T04:46:10.429Z,15.53
2022-09-13T04:46:56.931Z,15.53
2022-09-13T04:47:43.333Z,15.54
2022-09-13T04:48:29.822Z,15.55
2022-09-13T04:49:18.063Z,15.55
2022-09-13T04:50:04.820Z,15.55
2022-09-13T04:50:51.199Z,15.56
2022-09-13T04:51:37.770Z,15.56
2022-09-13T04:52:24.202Z,15.56
2022-09-13T04:53:11.035Z,15.56
2022-09-13T04:53:57.472Z,15.59
2022-09-13T04:54:44.686Z,15.59
2022-09-13T04:55:31.200Z,15.55
2022-09-13T04:56:19.508Z,15.59
2022-09-13T04:57:06.286Z,15.59
2022-09-13T04:57:53.873Z,15.57
2022-09-13T04:58:40.969Z,15.59
2022-09-13T04:59:27.787Z,15.56
2022-09-13T05:00:17.660Z,15.59
2022-09-13T05:01:06.557Z,15.58
2022-09-13T05:01:53.060Z,15.59
2022-09-13T05:02:39.551Z,15.60
2022-09-13T05:03:27.135Z,15.59
2022-09-13T05:04:13.592Z,15.60
2022-09-13T05:04:59.985Z,15.59
2022-09-13T05:05:46.394Z,15.59
2022-09-13T05:06:35.008Z,15.58
2022-09-13T05:07:22.291Z,15.58
2022-09-13T05:08:10.674Z,15.58
2022-09-13T05:08:57.585Z,15.62
2022-09-13T05:09:44.041Z,15.61
2022-09-13T05:10:30.399Z,15.62
2022-09-13T05:11:16.817Z,15.64
2022-09-13T05:12:04.001Z,15.66
2022-09-13T05:12:50.605Z,15.66
2022-09-13T05:13:37.179Z,15.66
2022-09-13T05:14:23.591Z,15.90
2022-09-13T05:15:10.637Z,16.13
2022-09-13T05:15:59.025Z,16.12
2022-09-13T05:16:45.485Z,15.90
2022-09-13T05:17:31.996Z,15.82
2022-09-13T05:18:19.087Z,15.74
2022-09-13T05:19:05.494Z,16.20
2022-09-13T05:19:51.890Z,16.09
2022-09-13T05:20:38.367Z,15.91
2022-09-13T05:21:25.730Z,16.25
2022-09-13T05:22:12.175Z,15.98
2022-09-13T05:22:58.556Z,15.90
2022-09-13T05:23:48.623Z,15.89
2022-09-13T05:24:35.029Z,15.84
2022-09-13T05:25:25.861Z,15.82
2022-09-13T05:26:12.568Z,15.80
2022-09-13T05:26:58.965Z,15.79
2022-09-13T05:27:46.086Z,15.79
2022-09-13T05:28:35.411Z,15.82
2022-09-13T05:29:21.925Z,15.80
2022-09-13T05:30:08.751Z,15.81
2022-09-13T05:31:08.869Z,15.82
2022-09-13T05:31:55.568Z,15.82
2022-09-13T05:32:42.118Z,15.84
2022-09-13T05:33:31.232Z,15.82
2022-09-13T05:34:18.015Z,15.77
2022-09-13T05:35:04.803Z,15.78
2022-09-13T05:35:51.910Z,15.78
2022-09-13T05:36:38.986Z,15.81
2022-09-13T05:37:25.395Z,15.81
2022-09-13T05:38:11.880Z,15.84
2022-09-13T05:39:26.003Z,15.86
2022-09-13T05:40:13.600Z,15.88
2022-09-13T05:41:05.184Z,15.88
2022-09-13T05:41:51.697Z,15.88
2022-09-13T05:42:38.115Z,15.90
2022-09-13T05:43:27.600Z,15.86
2022-09-13T05:44:14.821Z,15.91
2022-09-13T05:45:01.632Z,15.93
2022-09-13T05:45:48.542Z,15.98
2022-09-13T05:46:35.455Z,15.95
2022-09-13T05:47:21.900Z,15.95
2022-09-13T05:48:08.300Z,15.96
2022-09-13T05:48:58.527Z,15.97
2022-09-13T05:50:08.409Z,16.00
2022-09-13T05:50:58.313Z,15.99
2022-09-13T05:51:45.504Z,15.98
2022-09-13T05:52:31.910Z,16.00
2022-09-13T05:53:18.399Z,16.01
2022-09-13T05:54:04.996Z,16.08
2022-09-13T05:54:51.395Z,16.05
2022-09-13T05:55:37.761Z,16.05
2022-09-13T05:56:27.697Z,16.05
2022-09-13T05:57:14.087Z,16.06
2022-09-13T05:58:03.178Z,16.06
2022-09-13T05:58:51.348Z,16.08
2022-09-13T05:59:37.846Z,16.06
2022-09-13T06:00:24.495Z,16.11
2022-09-13T06:01:13.808Z,16.12
2022-09-13T06:02:00.447Z,16.14
2022-09-13T06:02:47.107Z,16.13
2022-09-13T06:03:33.814Z,16.16
2022-09-13T06:04:20.190Z,16.19
2022-09-13T06:05:10.616Z,16.26
2022-09-13T06:05:58.530Z,16.34
2022-09-13T06:06:44.998Z,16.33
2022-09-13T06:07:31.375Z,16.31
2022-09-13T06:08:17.978Z,16.34
2022-09-13T06:09:06.549Z,16.37
2022-09-13T06:09:53.427Z,16.39
2022-09-13T06:10:40.071Z,16.41
2022-09-13T06:11:26.957Z,16.40
2022-09-13T06:12:13.406Z,16.39
2022-09-13T06:13:00.025Z,16.41
2022-09-13T06:13:46.465Z,16.45
2022-09-13T06:14:33.154Z,16.47
2022-09-13T06:15:19.593Z,16.47
2022-09-13T06:16:09.602Z,16.43
2022-09-13T06:16:56.659Z,16.48
2022-09-13T06:17:43.127Z,16.57
2022-09-13T06:18:30.555Z,16.55
2022-09-13T06:19:17.040Z,16.60
2022-09-13T06:20:04.441Z,16.61
2022-09-13T06:20:51.312Z,16.64
2022-09-13T06:21:37.727Z,16.67
2022-09-13T06:22:24.139Z,16.68
2022-09-13T06:23:10.682Z,16.71
2022-09-13T06:23:57.656Z,16.73
2022-09-13T06:24:44.130Z,16.75
2022-09-13T06:25:31.005Z,16.76
2022-09-13T06:26:20.482Z,16.77
2022-09-13T06:27:07.089Z,16.78
2022-09-13T06:27:54.190Z,16.83
2022-09-13T06:28:41.832Z,16.81
2022-09-13T06:29:28.216Z,16.83
2022-09-13T06:30:15.585Z,16.86
2022-09-13T06:31:14.866Z,16.87
2022-09-13T06:32:01.875Z,16.93
2022-09-13T06:32:48.320Z,16.95
2022-09-13T06:33:37.548Z,17.02
2022-09-13T06:34:29.189Z,16.98
2022-09-13T06:35:17.832Z,17.02
2022-09-13T06:36:07.298Z,17.03
2022-09-13T06:36:53.715Z,17.09
2022-09-13T06:37:40.124Z,17.20
2022-09-13T06:38:26.503Z,17.22
2022-09-13T06:39:13.116Z,17.22
2022-09-13T06:39:59.626Z,17.20
2022-09-13T06:40:46.227Z,17.26
2022-09-13T06:41:32.721Z,17.28
2022-09-13T06:42:19.346Z,17.31
2022-09-13T06:43:05.718Z,17.35
2022-09-13T06:43:58.614Z,17.36
2022-09-13T06:44:46.100Z,17.31
2022-09-13T06:46:34.963Z,17.41
2022-09-13T06:47:21.601Z,17.44
2022-09-13T06:48:08.047Z,17.38
2022-09-13T06:48:55.427Z,17.45
2022-09-13T06:49:42.540Z,17.46
2022-09-13T06:50:29.436Z,17.50
2022-09-13T06:51:19.307Z,17.51
2022-09-13T06:52:05.935Z,17.60
2022-09-13T06:52:52.424Z,17.61
2022-09-13T06:53:41.160Z,17.64
2022-09-13T06:54:27.616Z,17.66
2022-09-13T06:55:14.241Z,17.67
2022-09-13T06:56:06.307Z,17.72
2022-09-13T06:56:52.711Z,17.68
2022-09-13T06:57:39.187Z,17.75
2022-09-13T06:58:25.649Z,17.70
2022-09-13T06:59:12.194Z,17.77
2022-09-13T06:59:58.648Z,17.88
2022-09-13T07:00:45.052Z,17.79
2022-09-13T07:01:43.673Z,17.80
2022-09-13T07:02:30.398Z,17.79
2022-09-13T07:03:16.800Z,17.82
2022-09-13T07:04:12.415Z,17.90
2022-09-13T07:04:58.864Z,17.91
2022-09-13T07:05:45.285Z,17.99
2022-09-13T07:06:38.863Z,18.00
2022-09-13T07:07:25.295Z,17.99
2022-09-13T07:08:11.928Z,18.04
2022-09-13T07:09:05.495Z,18.08
2022-09-13T07:09:51.899Z,18.10
2022-09-13T07:10:38.293Z,18.12
2022-09-13T07:11:27.372Z,18.17
2022-09-13T07:12:16.608Z,18.17
2022-09-13T07:13:06.479Z,18.14
2022-09-13T07:13:55.639Z,18.19
2022-09-13T07:14:42.028Z,18.19
2022-09-13T07:15:28.483Z,18.21
2022-09-13T07:16:15.009Z,18.22
2022-09-13T07:17:01.635Z,18.28
2022-09-13T07:17:48.110Z,18.21
2022-09-13T07:18:34.809Z,18.25
2022-09-13T07:19:31.310Z,18.31
2022-09-13T07:20:17.896Z,18.38
2022-09-13T07:21:07.652Z,18.38
2022-09-13T07:21:56.536Z,18.38
2022-09-13T07:22:43.033Z,18.54
2022-09-13T07:23:31.036Z,18.53
2022-09-13T07:24:19.599Z,18.55
2022-09-13T07:25:06.737Z,18.57
2022-09-13T07:25:55.026Z,18.59
2022-09-13T07:26:41.672Z,18.59
2022-09-13T07:27:28.247Z,18.62
2022-09-13T07:28:14.648Z,18.69
2022-09-13T07:29:05.529Z,18.71
2022-09-13T07:29:52.100Z,18.75
2022-09-13T07:30:39.127Z,18.84
2022-09-13T07:31:47.687Z,18.87
2022-09-13T07:32:34.060Z,18.91
2022-09-13T07:33:20.975Z,18.93
2022-09-13T07:34:12.748Z,18.96
2022-09-13T07:34:59.105Z,19.04
2022-09-13T07:35:45.773Z,19.07
2022-09-13T07:36:34.576Z,19.06
2022-09-13T07:37:21.133Z,19.15
2022-09-13T07:38:07.656Z,19.16
2022-09-13T07:38:54.395Z,19.17
2022-09-13T07:39:40.882Z,19.23
2022-09-13T07:40:27.452Z,19.21
2022-09-13T07:41:17.028Z,19.26
2022-09-13T07:42:03.639Z,19.40
2022-09-13T07:42:50.212Z,19.37
2022-09-13T07:43:37.165Z,19.35
2022-09-13T07:44:23.609Z,19.46
2022-09-13T07:45:11.702Z,19.43
2022-09-13T07:45:59.782Z,19.44
2022-09-13T07:46:46.376Z,19.46
2022-09-13T07:47:33.546Z,19.47
2022-09-13T07:48:19.995Z,19.46
2022-09-13T07:49:07.837Z,19.54
2022-09-13T07:49:54.185Z,19.55
2022-09-13T07:50:40.821Z,19.56
2022-09-13T07:51:33.273Z,19.57
2022-09-13T07:52:19.700Z,19.55
2022-09-13T07:53:06.166Z,19.69
2022-09-13T07:53:57.648Z,19.66
2022-09-13T07:54:44.468Z,19.69
2022-09-13T07:55:31.217Z,19.72
2022-09-13T07:56:23.421Z,19.75
2022-09-13T07:57:09.918Z,19.84
2022-09-13T07:57:56.778Z,19.83
2022-09-13T07:58:45.694Z,19.84
2022-09-13T07:59:32.076Z,19.85
2022-09-13T08:00:18.819Z,19.86
2022-09-13T08:01:05.553Z,19.87
2022-09-13T08:01:52.422Z,19.83
2022-09-13T08:02:39.298Z,19.90
2022-09-13T08:03:25.776Z,19.87
2022-09-13T08:04:15.252Z,20.07
2022-09-13T08:05:01.647Z,19.99
2022-09-13T08:05:48.058Z,19.90
2022-09-13T08:06:36.604Z,19.98
2022-09-13T08:07:23.258Z,20.06
2022-09-13T08:08:09.827Z,20.00
2022-09-13T08:08:56.849Z,20.02
2022-09-13T08:09:43.280Z,20.04
2022-09-13T08:10:29.659Z,20.11
2022-09-13T08:11:21.915Z,20.16
2022-09-13T08:12:08.361Z,20.20
2022-09-13T08:12:54.928Z,20.25
2022-09-13T08:13:41.359Z,20.25
2022-09-13T08:14:27.908Z,20.28
2022-09-13T08:15:14.324Z,20.28
2022-09-13T08:16:05.804Z,20.35
2022-09-13T08:16:56.663Z,20.53
2022-09-13T08:17:43.068Z,20.51
2022-09-13T08:18:29.482Z,20.62
2022-09-13T08:19:18.800Z,20.70
2022-09-13T08:20:06.310Z,20.68
2022-09-13T08:20:57.887Z,20.70
2022-09-13T08:21:44.902Z,20.74
2022-09-13T08:22:31.324Z,20.80
2022-09-13T08:23:17.719Z,20.74
2022-09-13T08:24:07.122Z,20.79
2022-09-13T08:24:53.500Z,20.83
2022-09-13T08:25:40.819Z,20.81
2022-09-13T08:26:28.883Z,20.89
2022-09-13T08:27:15.361Z,20.94
2022-09-13T08:28:10.886Z,21.09
2022-09-13T08:29:00.184Z,21.04
2022-09-13T08:29:46.572Z,21.17
2022-09-13T08:30:35.779Z,21.19
2022-09-13T08:31:23.050Z,21.20
2022-09-13T08:32:09.494Z,21.27
2022-09-13T08:32:55.880Z,21.27
2022-09-13T08:33:49.228Z,21.31
2022-09-13T08:34:35.895Z,21.40
2022-09-13T08:35:22.362Z,21.41
2022-09-13T08:36:08.785Z,21.56
2022-09-13T08:36:55.222Z,21.72
2022-09-13T08:37:41.610Z,21.80
2022-09-13T08:38:29.326Z,21.67
2022-09-13T08:39:18.654Z,21.62
2022-09-13T08:40:05.633Z,22.02
2022-09-13T08:41:02.320Z,21.69
2022-09-13T08:42:11.448Z,21.84
2022-09-13T08:43:12.028Z,21.65
2022-09-13T08:44:03.608Z,21.46
2022-09-13T08:44:55.918Z,21.62
2022-09-13T08:45:42.902Z,21.62
2022-09-13T08:46:37.209Z,21.62
2022-09-13T08:47:47.196Z,21.62
2022-09-13T08:48:36.908Z,21.49
2022-09-13T08:49:41.056Z,21.52
2022-09-13T08:50:32.522Z,21.59
2022-09-13T08:51:41.712Z,21.53
2022-09-13T08:52:45.160Z,21.32
2022-09-13T08:53:35.375Z,21.32
2022-09-13T08:54:22.246Z,21.32
2022-09-13T08:55:37.399Z,21.34
2022-09-13T08:56:38.570Z,21.38
2022-09-13T08:57:59.346Z,21.44
2022-09-13T08:59:03.578Z,21.50
2022-09-13T09:00:21.107Z,21.69
2022-09-13T09:01:20.477Z,21.96
2022-09-13T09:02:37.327Z,22.02
2022-09-13T09:04:02.851Z,21.75
2022-09-13T09:05:12.021Z,21.88
2022-09-13T09:05:58.529Z,21.76
2022-09-13T09:06:45.442Z,21.80
2022-09-13T09:07:40.556Z,21.76
2022-09-13T09:08:40.211Z,21.89
2022-09-13T09:09:32.368Z,21.91
2022-09-13T09:10:26.209Z,21.99
2022-09-13T09:11:26.179Z,22.11
2022-09-13T09:12:34.486Z,22.03
2022-09-13T09:13:32.591Z,22.01
2022-09-13T09:14:39.039Z,22.02
2022-09-13T09:15:33.673Z,22.15
2022-09-13T09:16:29.281Z,22.15
2022-09-13T09:17:34.794Z,22.28
2022-09-13T09:18:30.463Z,22.34
2022-09-13T09:19:25.209Z,22.38
2022-09-13T09:20:24.861Z,22.39
2022-09-13T09:21:17.781Z,22.50
2022-09-13T09:22:13.518Z,22.32
2022-09-13T09:23:21.204Z,22.31
2022-09-13T09:24:19.583Z,22.29
2022-09-13T09:25:06.619Z,22.29
2022-09-13T09:26:20.120Z,22.30
2022-09-13T09:27:19.086Z,22.41
2022-09-13T09:28:14.458Z,22.40
2022-09-13T09:29:25.040Z,22.36
2022-09-13T09:30:15.759Z,22.36
2022-09-13T09:31:29.068Z,22.44
2022-09-13T09:32:47.325Z,22.35
2022-09-13T09:33:50.030Z,22.38
2022-09-13T09:34:56.518Z,22.42
2022-09-13T09:36:18.420Z,22.38
2022-09-13T09:37:17.127Z,22.44
2022-09-13T09:38:34.289Z,22.52
2022-09-13T09:39:20.762Z,22.57
2022-09-13T09:40:13.903Z,22.54
2022-09-13T09:41:11.904Z,22.63
2022-09-13T09:41:59.334Z,22.69
2022-09-13T09:42:49.289Z,22.73
2022-09-13T09:43:52.470Z,22.80
2022-09-13T09:44:40.720Z,22.92
2022-09-13T09:45:34.580Z,22.98
2022-09-13T09:46:28.740Z,23.08
2022-09-13T09:47:45.760Z,23.14
2022-09-13T09:48:43.105Z,23.18
2022-09-13T09:50:00.114Z,23.17
2022-09-13T09:50:52.017Z,23.37
2022-09-13T09:51:39.782Z,23.37
2022-09-13T09:52:35.340Z,23.45
2022-09-13T09:53:29.402Z,23.60
2022-09-13T09:54:18.705Z,23.54
2022-09-13T09:55:20.347Z,23.51
2022-09-13T09:56:20.317Z,23.55
2022-09-13T09:57:09.913Z,23.56
2022-09-13T09:58:06.099Z,23.60
2022-09-13T09:58:55.739Z,23.46
2022-09-13T09:59:42.114Z,23.45
2022-09-13T10:00:33.983Z,23.45
2022-09-13T10:01:38.386Z,23.56
2022-09-13T10:02:25.015Z,23.49
2022-09-13T10:03:24.966Z,23.49
2022-09-13T10:04:11.401Z,23.67
2022-09-13T10:05:02.822Z,23.67
2022-09-13T10:05:49.457Z,23.79
2022-09-13T10:06:39.846Z,23.71
2022-09-13T10:07:32.518Z,23.67
2022-09-13T10:08:35.119Z,23.60
2022-09-13T10:09:23.022Z,23.63
2022-09-13T10:10:24.402Z,23.83
2022-09-13T10:11:10.953Z,23.89
2022-09-13T10:11:59.923Z,23.92
2022-09-13T10:12:52.778Z,24.92
2022-09-13T10:14:01.790Z,24.64
2022-09-13T10:14:48.895Z,24.59
2022-09-13T10:15:35.668Z,24.46
2022-09-13T10:16:28.966Z,24.47
2022-09-13T10:17:25.690Z,24.53
2022-09-13T10:18:42.266Z,24.43
2022-09-13T10:19:26.519Z,24.69
2022-09-13T10:20:12.898Z,24.50
2022-09-13T10:21:04.912Z,24.52
2022-09-13T10:22:11.212Z,24.48
2022-09-13T10:23:12.141Z,24.56
2022-09-13T10:24:17.625Z,24.39
2022-09-13T10:25:23.401Z,24.40
2022-09-13T10:26:17.736Z,24.34
2022-09-13T10:27:19.855Z,24.36
2022-09-13T10:28:15.582Z,24.45
2022-09-13T10:29:17.668Z,24.31
2022-09-13T10:30:06.409Z,24.27
2022-09-13T10:31:04.915Z,24.31
2022-09-13T10:31:53.625Z,24.31
2022-09-13T10:32:40.211Z,24.25
2022-09-13T10:33:38.636Z,24.29
2022-09-13T10:34:28.098Z,24.25
2022-09-13T10:35:19.185Z,24.15
2022-09-13T10:36:51.280Z,24.05
2022-09-13T10:37:36.450Z,24.26
2022-09-13T10:38:36.142Z,24.30
2022-09-13T10:39:25.443Z,24.35
2022-09-13T10:40:29.244Z,24.41
2022-09-13T10:41:28.587Z,24.57
2022-09-13T10:42:24.145Z,24.63
2022-09-13T10:43:19.395Z,24.62
2022-09-13T10:44:24.683Z,24.85
2022-09-13T10:45:23.930Z,24.84
2022-09-13T10:46:21.974Z,24.85
2022-09-13T10:47:21.883Z,24.79
2022-09-13T10:48:17.005Z,24.83
2022-09-13T10:49:03.449Z,24.90
2022-09-13T10:49:56.041Z,24.92
2022-09-13T10:51:00.512Z,24.89
2022-09-13T10:51:47.031Z,24.80
2022-09-13T10:52:33.677Z,24.80
2022-09-13T10:53:38.762Z,24.77
2022-09-13T10:54:25.940Z,24.76
2022-09-13T10:55:18.524Z,24.76
2022-09-13T10:56:18.279Z,24.74
2022-09-13T10:57:37.166Z,24.79
2022-09-13T10:58:23.756Z,24.76
2022-09-13T10:59:31.929Z,24.69
2022-09-13T11:00:22.858Z,24.68
2022-09-13T11:01:48.493Z,24.66
2022-09-13T11:03:13.959Z,24.67
2022-09-13T11:04:27.799Z,24.71
2022-09-13T11:05:28.908Z,24.76
2022-09-13T11:06:44.233Z,24.91
2022-09-13T11:07:39.679Z,24.91
2022-09-13T11:08:34.826Z,25.02
2022-09-13T11:09:34.299Z,25.10
2022-09-13T11:10:32.567Z,25.05
2022-09-13T11:11:40.763Z,25.10
2022-09-13T11:12:55.508Z,25.32
2022-09-13T11:14:07.179Z,25.43
2022-09-13T11:15:15.949Z,25.48
2022-09-13T11:16:05.327Z,25.64
2022-09-13T11:17:07.308Z,25.60
2022-09-13T11:18:12.057Z,25.61
2022-09-13T11:19:20.103Z,25.53
2022-09-13T11:20:55.851Z,25.54
2022-09-13T11:21:53.966Z,25.68
2022-09-13T11:23:03.375Z,25.63
2022-09-13T11:24:13.943Z,25.62
2022-09-13T11:25:11.162Z,25.75
2022-09-13T11:26:12.649Z,25.79